This is the latest recevied weather packets stored in our database for station/object E22ZMG-3. If no packets are shown the sender has not sent any weather packets the latest 10 day(s).
| Time | Temp. | Humidity | Pressure | Rain* | Wind** | Luminosity | Snow |
|---|---|---|---|---|---|---|---|
| 1778084095 | 35° C | 45% | 975 hPa | - | - | 0 W/m² | - |
| 1778083470 | 34.44° C | 47% | 975 hPa | - | - | 0 W/m² | - |
| 1778082846 | 33.89° C | 48% | 975 hPa | - | - | 0 W/m² | - |
| 1778082221 | 33.89° C | 48% | 975 hPa | - | - | 0 W/m² | - |
| 1778081596 | 34.44° C | 48% | 975 hPa | - | - | 0 W/m² | - |
| 1778080970 | 34.44° C | 47% | 975 hPa | - | - | 0 W/m² | - |
| 1778080346 | 33.89° C | 48% | 975 hPa | - | - | 0 W/m² | - |
| 1778079721 | 35° C | 46% | 975 hPa | - | - | 0 W/m² | - |
| 1778079097 | 35° C | 46% | 975 hPa | - | - | 0 W/m² | - |
| 1778078472 | 33.89° C | 48% | 974 hPa | - | - | 0 W/m² | - |
| 1778077848 | 34.44° C | 46% | 974 hPa | - | - | 0 W/m² | - |
| 1778077223 | 34.44° C | 46% | 974 hPa | - | - | 0 W/m² | - |
| 1778076598 | 35° C | 45% | 974 hPa | - | - | 0 W/m² | - |
| 1778075973 | 34.44° C | 46% | 974 hPa | - | - | 0 W/m² | - |
| 1778075348 | 33.89° C | 48% | 974 hPa | - | - | 0 W/m² | - |
| 1778074724 | 35.56° C | 44% | 973 hPa | - | - | 0 W/m² | - |
| 1778074100 | 35.56° C | 45% | 973 hPa | - | - | 0 W/m² | - |
| 1778073475 | 35.56° C | 45% | 972 hPa | - | - | 0 W/m² | - |
| 1778072851 | 36.67° C | 42% | 972 hPa | - | - | 0 W/m² | - |
| 1778072227 | 37.22° C | 41% | 972 hPa | - | - | 0 W/m² | - |
| 1778071602 | 36.67° C | 41% | 972 hPa | - | - | 0 W/m² | - |
| 1778070978 | 37.22° C | 40% | 972 hPa | - | - | 0 W/m² | - |
| 1778070353 | 37.22° C | 40% | 972 hPa | - | - | 0 W/m² | - |
| 1778069728 | 36.67° C | 40% | 972 hPa | - | - | 0 W/m² | - |
| 1778069104 | 37.22° C | 39% | 972 hPa | - | - | 0 W/m² | - |
* Rain since midnight (hover to see other rain measurements)
** Current wind speed in m/s (hover to see current wind gust speed)